Terminal Aerodrome Forecast
Issued by NWS

Home | Current Version | Previous Version | Text Only | Print | Product List | Glossary On
Versions: 1 2 3 4 5 6 7 8 9 10 11 12 13
000
FTUS43 KSGF 200500
TAFJLN
TAF
KJLN 200520Z 2006/2106 17007KT P6SM BKN250
     FM201500 20012KT P6SM SCT045 BKN150
     FM210100 16007KT P6SM BKN040 OVC120 PROB30 2103/2106 5SM SHRA
      OVC040=

USA.gov is the U.S. government's official web portal to all federal, state and local government web resources and services.